Time;durP1;ratioP1;P1;durP2;ratioP2;P2;SDS_P1;SDS_P2;PMS_P1;PMS_P2;Temp;Humidity;BMP_temperature;BMP_pressure;BME280_temperature;BME280_humidity;BME280_pressure;Samples;Min_cycle;Max_cycle;Signal;HPM_P1;HPM_P2
2023/01/21 08:24:26;;;;;;;30.47;20.30;;;-1.00;99.90;;;;;;5092498;27;20616;-54
2023/01/21 08:26:56;;;;;;;27.20;20.40;;;-0.90;99.90;;;;;;5090741;28;20446;-52
2023/01/21 08:29:24;;;;;;;34.23;19.20;;;-0.90;99.90;;;;;;5084136;28;20526;-49
2023/01/21 08:31:51;;;;;;;32.27;21.97;;;-0.90;99.90;;;;;;5087677;28;20443;-50
2023/01/21 08:34:18;;;;;;;28.07;20.17;;;-1.00;99.90;;;;;;5089527;28;20459;-50
2023/01/21 08:36:46;;;;;;;27.90;20.10;;;-0.80;99.90;;;;;;5089765;28;20448;-49
2023/01/21 08:39:15;;;;;;;26.20;17.60;;;-0.90;99.90;;;;;;5080515;28;20455;-50
2023/01/21 08:41:44;;;;;;;34.87;21.20;;;-1.40;99.90;;;;;;5083849;28;20811;-50
2023/01/21 08:44:13;;;;;;;31.83;19.97;;;-1.40;99.90;;;;;;5087131;28;20487;-52
2023/01/21 08:46:40;;;;;;;32.37;20.80;;;-1.30;99.90;;;;;;5088176;28;20543;-50
2023/01/21 08:49:07;;;;;;;27.97;19.60;;;-1.20;99.90;;;;;;5085942;28;20828;-58
2023/01/21 08:51:35;;;;;;;26.93;21.10;;;-1.10;99.90;;;;;;5087058;28;20531;-49
2023/01/21 08:54:04;;;;;;;32.20;21.50;;;-1.10;99.90;;;;;;5087380;28;20595;-50
2023/01/21 08:56:32;;;;;;;14.97;11.80;;;-1.00;99.90;;;;;;5086003;28;20463;-49
2023/01/21 08:59:02;;;;;;;25.13;17.23;;;0.50;99.90;;;;;;5086149;28;20460;-51
2023/01/21 09:01:29;;;;;;;16.60;12.70;;;2.80;99.90;;;;;;5085827;28;20544;-49
2023/01/21 09:03:57;;;;;;;22.83;17.83;;;6.20;99.90;;;;;;5085759;28;20494;-49
2023/01/21 09:06:25;;;;;;;26.10;13.90;;;6.30;99.90;;;;;;5088899;28;21001;-48
2023/01/21 09:08:53;;;;;;;25.93;18.43;;;6.10;99.90;;;;;;5089260;28;20491;-54
2023/01/21 09:11:20;;;;;;;29.00;18.40;;;3.90;99.90;;;;;;5086213;28;20464;-56
2023/01/21 09:13:47;;;;;;;31.80;18.37;;;2.80;99.90;;;;;;5080543;28;21526;-57
2023/01/21 09:16:19;;;;;;;27.10;19.80;;;2.20;99.90;;;;;;5077697;28;20476;-55
2023/01/21 09:18:47;;;;;;;24.20;19.43;;;1.20;99.90;;;;;;5085552;28;20471;-58
2023/01/21 09:21:15;;;;;;;26.83;19.23;;;0.90;99.90;;;;;;5085842;28;20513;-53
2023/01/21 09:23:44;;;;;;;25.37;19.63;;;0.50;99.90;;;;;;5085322;28;20492;-56
2023/01/21 09:26:16;;;;;;;29.60;19.57;;;0.30;99.90;;;;;;5085944;28;20531;-56
2023/01/21 09:28:45;;;;;;;30.40;20.13;;;0.20;99.90;;;;;;5085751;28;20464;-60
2023/01/21 09:31:15;;;;;;;23.60;17.73;;;0.10;99.90;;;;;;5082106;28;20451;-56
2023/01/21 09:33:47;;;;;;;29.77;20.17;;;-0.10;99.90;;;;;;5086279;28;20494;-53
2023/01/21 09:36:18;;;;;;;27.50;19.20;;;-0.10;99.90;;;;;;5075602;28;20430;-57
2023/01/21 09:38:46;;;;;;;29.60;18.70;;;-0.10;99.90;;;;;;5072985;28;20501;-59
2023/01/21 09:41:23;;;;;;;20.83;18.27;;;0.00;99.90;;;;;;5073122;28;20549;-56
2023/01/21 09:43:58;;;;;;;28.10;18.37;;;0.00;99.90;;;;;;5056573;28;20514;-54
2023/01/21 09:46:37;;;;;;;25.57;18.70;;;0.20;99.90;;;;;;5068644;28;20440;-50
2023/01/21 09:49:13;;;;;;;24.27;18.70;;;0.20;99.90;;;;;;5059563;28;20487;-54
2023/01/21 09:51:59;;;;;;;27.63;18.00;;;0.20;99.90;;;;;;5075122;28;20428;-51
2023/01/21 09:54:28;;;;;;;25.80;17.53;;;0.00;99.90;;;;;;5074062;28;20502;-55
2023/01/21 09:57:12;;;;;;;28.87;18.30;;;0.00;99.90;;;;;;5074823;28;20495;-58
2023/01/21 09:59:53;;;;;;;29.10;18.13;;;0.00;99.90;;;;;;5074930;28;20436;-58
2023/01/21 10:02:28;;;;;;;28.40;19.00;;;-0.10;99.90;;;;;;5072887;28;20436;-58
2023/01/21 10:05:06;;;;;;;24.77;16.33;;;-0.20;99.90;;;;;;5073322;28;20452;-53
2023/01/21 10:07:40;;;;;;;24.20;16.70;;;-0.10;99.90;;;;;;5074702;28;20448;-58
2023/01/21 10:10:18;;;;;;;27.40;19.23;;;-0.10;99.90;;;;;;5072130;28;20462;-54
2023/01/21 10:13:07;;;;;;;21.30;16.90;;;0.00;99.90;;;;;;5070635;28;20437;-56
2023/01/21 10:15:44;;;;;;;33.80;18.87;;;0.00;99.90;;;;;;5069997;28;20443;-55
2023/01/21 10:18:14;;;;;;;24.13;17.67;;;0.00;99.90;;;;;;5054740;28;20764;-56
2023/01/21 10:20:50;;;;;;;24.17;17.30;;;-0.10;99.90;;;;;;5054319;28;20957;-53
2023/01/21 10:23:23;;;;;;;29.23;17.90;;;0.10;99.90;;;;;;5054030;28;20496;-56
2023/01/21 10:25:50;;;;;;;22.80;15.20;;;0.10;99.90;;;;;;5053708;28;20441;-56
2023/01/21 10:28:23;;;;;;;18.10;14.10;;;0.10;99.90;;;;;;5064205;28;20452;-57
2023/01/21 10:30:52;;;;;;;16.20;11.53;;;4.80;99.90;;;;;;5067121;28;20505;-55
2023/01/21 10:33:22;;;;;;;13.52;9.13;;;8.40;99.90;;;;;;5073299;28;20430;-59
2023/01/21 10:36:36;;;;;;;18.80;14.27;;;11.00;99.90;;;;;;5072349;28;20198;-58
2023/01/21 10:39:12;;;;;;;17.97;15.93;;;8.70;97.40;;;;;;5024960;28;20906;-58
2023/01/21 10:42:04;;;;;;;18.80;13.30;;;6.00;99.90;;;;;;5073616;28;20514;-52
2023/01/21 10:44:39;;;;;;;23.95;16.50;;;4.00;99.90;;;;;;5053203;28;20567;-52
2023/01/21 10:47:20;;;;;;;19.77;15.37;;;2.70;99.90;;;;;;5063660;28;20203;-58
2023/01/21 10:49:58;;;;;;;19.50;15.10;;;1.80;99.90;;;;;;5073675;28;20524;-55
2023/01/21 10:52:34;;;;;;;19.13;10.67;;;1.60;99.90;;;;;;5073944;28;20455;-48
2023/01/21 10:55:19;;;;;;;11.40;9.33;;;2.80;99.90;;;;;;5073683;28;20486;-49
2023/01/21 10:57:55;;;;;;;10.80;8.23;;;7.70;99.90;;;;;;5069450;28;20445;-47
2023/01/21 11:00:25;;;;;;;8.50;7.20;;;10.70;99.90;;;;;;5053693;28;20437;-48
2023/01/21 11:02:56;;;;;;;20.27;14.30;;;11.60;99.30;;;;;;5053207;28;20845;-53
2023/01/21 11:05:28;;;;;;;19.70;14.23;;;11.00;94.30;;;;;;5053623;28;20441;-55
2023/01/21 11:07:56;;;;;;;20.17;15.27;;;7.30;97.70;;;;;;5073643;28;20432;-54
2023/01/21 11:10:26;;;;;;;20.53;15.33;;;5.20;99.90;;;;;;5073367;28;20808;-52
2023/01/21 11:12:55;;;;;;;20.63;16.37;;;4.10;99.90;;;;;;5070022;28;20911;-55
2023/01/21 11:15:23;;;;;;;26.97;19.30;;;2.90;99.90;;;;;;5068462;28;20970;-52
2023/01/21 11:17:52;;;;;;;18.97;15.73;;;2.60;99.90;;;;;;5071531;28;20449;-48
2023/01/21 11:20:24;;;;;;;19.93;15.07;;;2.00;99.90;;;;;;5066346;28;20800;-48
2023/01/21 11:22:51;;;;;;;19.80;14.97;;;1.90;99.90;;;;;;5071141;28;20479;-50
2023/01/21 11:25:34;;;;;;;21.60;15.80;;;1.80;99.90;;;;;;5073229;28;20871;-50
2023/01/21 11:28:01;;;;;;;21.13;16.33;;;2.50;99.90;;;;;;5070674;28;20512;-52
2023/01/21 11:30:34;;;;;;;16.80;11.47;;;2.10;99.90;;;;;;5072433;28;20539;-51
2023/01/21 11:33:23;;;;;;;21.60;16.90;;;3.30;99.90;;;;;;5070998;28;20472;-49
2023/01/21 11:35:52;;;;;;;19.40;15.00;;;4.60;99.90;;;;;;5071523;28;20448;-49
2023/01/21 11:38:32;;;;;;;22.23;14.50;;;3.70;99.90;;;;;;5072879;28;20476;-53
2023/01/21 11:41:06;;;;;;;22.93;15.13;;;4.20;99.90;;;;;;5052725;28;20455;-56
2023/01/21 11:43:40;;;;;;;17.33;12.27;;;3.70;99.90;;;;;;5058946;28;20570;-51
2023/01/21 11:46:29;;;;;;;19.83;14.00;;;4.70;99.90;;;;;;5073017;28;20507;-53
2023/01/21 11:49:16;;;;;;;19.53;14.20;;;4.00;99.90;;;;;;5073561;28;20523;-58
2023/01/21 11:51:46;;;;;;;15.10;11.30;;;3.30;99.90;;;;;;5072680;28;20508;-49
2023/01/21 11:54:15;;;;;;;19.17;13.97;;;5.80;99.90;;;;;;5071990;28;20471;-48
2023/01/21 11:56:54;;;;;;;16.47;12.77;;;5.30;99.90;;;;;;5071116;28;20456;-56
2023/01/21 11:59:26;;;;;;;21.80;15.60;;;4.10;99.90;;;;;;5071113;28;20452;-53
2023/01/21 12:01:58;;;;;;;17.93;13.70;;;4.80;99.90;;;;;;5071961;28;20857;-50
2023/01/21 12:04:26;;;;;;;16.33;13.40;;;4.70;99.90;;;;;;5072174;28;20558;-50
2023/01/21 12:06:56;;;;;;;19.00;15.53;;;4.20;99.90;;;;;;5071355;28;20452;-54
2023/01/21 12:09:26;;;;;;;14.80;11.90;;;4.00;99.90;;;;;;5069872;28;20460;-49
2023/01/21 12:12:22;;;;;;;14.20;11.80;;;3.40;99.90;;;;;;5069791;28;20536;-51
2023/01/21 12:14:54;;;;;;;25.43;15.30;;;3.00;99.90;;;;;;5069701;28;20469;-52
2023/01/21 12:17:36;;;;;;;19.60;13.00;;;2.40;99.90;;;;;;5069795;28;20429;-54
2023/01/21 12:20:19;;;;;;;19.73;15.03;;;1.90;99.90;;;;;;5070711;28;20459;-53
2023/01/21 12:23:10;;;;;;;19.77;14.30;;;1.80;99.90;;;;;;5070977;28;20480;-55
2023/01/21 12:25:44;;;;;;;17.10;12.90;;;1.70;99.90;;;;;;5062951;28;20902;-53
2023/01/21 12:28:33;;;;;;;18.73;14.00;;;1.70;99.90;;;;;;5070895;28;20970;-54
2023/01/21 12:31:10;;;;;;;19.77;15.50;;;1.80;99.90;;;;;;5072701;28;20942;-54
2023/01/21 12:33:46;;;;;;;19.07;15.13;;;1.50;99.90;;;;;;5055936;28;20464;-53
2023/01/21 12:36:18;;;;;;;19.80;14.17;;;1.30;99.90;;;;;;5051756;28;20433;-54
2023/01/21 12:38:50;;;;;;;12.40;8.77;;;1.90;99.90;;;;;;5051594;28;20824;-53
2023/01/21 12:41:23;;;;;;;14.17;12.10;;;2.90;99.90;;;;;;5051770;28;20958;-54
2023/01/21 12:43:57;;;;;;;15.10;10.70;;;3.20;99.90;;;;;;5050794;28;20519;-53
2023/01/21 12:46:28;;;;;;;19.53;12.10;;;3.20;99.90;;;;;;5048518;28;20437;-51
2023/01/21 12:49:01;;;;;;;18.60;14.20;;;2.60;99.90;;;;;;5049853;28;21094;-51
2023/01/21 12:51:30;;;;;;;21.87;15.00;;;2.50;99.90;;;;;;5050168;28;20440;-53
2023/01/21 12:54:04;;;;;;;12.10;10.77;;;2.20;99.90;;;;;;5050192;28;20473;-53
2023/01/21 12:56:38;;;;;;;21.23;14.07;;;2.90;99.90;;;;;;5050139;28;20436;-59
2023/01/21 12:59:15;;;;;;;18.87;13.40;;;2.30;99.90;;;;;;5050355;28;20429;-57
2023/01/21 13:01:53;;;;;;;15.20;10.60;;;1.90;99.90;;;;;;5052261;28;20528;-57
2023/01/21 13:04:37;;;;;;;22.77;15.73;;;2.30;99.90;;;;;;5051484;28;20888;-56
2023/01/21 13:07:12;;;;;;;20.03;13.00;;;1.90;99.90;;;;;;5052245;28;20436;-57
2023/01/21 13:09:46;;;;;;;21.90;14.03;;;1.60;99.90;;;;;;5053644;28;20772;-57
2023/01/21 13:12:18;;;;;;;17.90;13.67;;;1.50;99.90;;;;;;5062997;28;20470;-58
2023/01/21 13:14:51;;;;;;;22.60;14.77;;;1.40;99.90;;;;;;5058998;28;20472;-59
2023/01/21 13:17:22;;;;;;;13.93;12.43;;;1.20;99.90;;;;;;5056520;28;20516;-57
2023/01/21 13:19:49;;;;;;;23.60;15.40;;;1.00;99.90;;;;;;5056398;28;20476;-58
2023/01/21 13:22:26;;;;;;;23.50;16.13;;;0.90;99.90;;;;;;5071622;28;20484;-57
2023/01/21 13:25:27;;;;;;;23.10;16.93;;;0.80;99.90;;;;;;5067911;28;20970;-57
2023/01/21 13:28:00;;;;;;;17.60;14.43;;;0.70;99.90;;;;;;5075987;28;20427;-57
2023/01/21 13:30:36;;;;;;;20.80;14.50;;;0.70;99.90;;;;;;5074145;28;20547;-57
2023/01/21 13:33:23;;;;;;;20.90;15.17;;;0.70;99.90;;;;;;5058983;28;20963;-56
2023/01/21 13:36:00;;;;;;;20.57;15.57;;;0.60;99.90;;;;;;5053855;28;20512;-57
2023/01/21 13:38:33;;;;;;;23.10;15.77;;;0.60;99.90;;;;;;5053939;28;20435;-57
2023/01/21 13:41:10;;;;;;;23.70;15.67;;;0.60;99.90;;;;;;5054137;28;20448;-57
2023/01/21 13:43:53;;;;;;;22.97;16.00;;;0.70;99.90;;;;;;5053424;28;20893;-57
2023/01/21 13:46:47;;;;;;;25.10;16.40;;;0.50;99.90;;;;;;5053731;28;20437;-57
2023/01/21 13:49:49;;;;;;;31.10;20.10;;;0.70;99.90;;;;;;5054236;28;20804;-57
2023/01/21 13:52:21;;;;;;;23.30;14.23;;;0.60;99.90;;;;;;5053564;28;20464;-57
2023/01/21 13:55:02;;;;;;;22.70;14.60;;;0.60;99.90;;;;;;5055872;28;20466;-57
2023/01/21 13:57:48;;;;;;;23.30;15.83;;;0.60;99.90;;;;;;5055209;28;20440;-56
2023/01/21 14:00:20;;;;;;;24.60;14.30;;;0.60;99.90;;;;;;5055646;28;20440;-56
2023/01/21 14:02:55;;;;;;;23.57;14.80;;;0.60;99.90;;;;;;5055621;28;20516;-57
2023/01/21 14:05:29;;;;;;;22.03;15.77;;;0.70;99.90;;;;;;5055367;28;20468;-59
2023/01/21 14:08:02;;;;;;;19.03;13.47;;;0.70;99.90;;;;;;5055342;28;20788;-57
2023/01/21 14:10:34;;;;;;;22.67;14.43;;;0.80;99.90;;;;;;5055184;28;20433;-57
2023/01/21 14:13:49;;;;;;;17.70;13.60;;;0.70;99.90;;;;;;5055077;28;20845;-58
2023/01/21 14:16:49;;;;;;;16.00;12.50;;;0.70;99.90;;;;;;5054514;28;20481;-59
2023/01/21 14:19:32;;;;;;;24.37;14.33;;;0.80;99.90;;;;;;5052700;28;20536;-56
2023/01/21 14:22:18;;;;;;;20.10;13.13;;;0.80;99.90;;;;;;5054978;28;20426;-57
2023/01/21 14:25:08;;;;;;;24.70;14.63;;;0.80;99.90;;;;;;5054933;28;20493;-56
2023/01/21 14:27:46;;;;;;;19.70;13.60;;;0.80;99.90;;;;;;5055031;28;20445;-58
2023/01/21 14:30:18;;;;;;;15.70;11.83;;;0.70;99.90;;;;;;5054858;28;20437;-56
2023/01/21 14:32:48;;;;;;;19.07;13.17;;;0.70;99.90;;;;;;5055175;28;20795;-56
